Time;durP1;ratioP1;P1;durP2;ratioP2;P2;SDS_P1;SDS_P2;PMS_P1;PMS_P2;Temp;Humidity;BMP_temperature;BMP_pressure;BME280_temperature;BME280_humidity;BME280_pressure;Samples;Min_cycle;Max_cycle;Signal;HPM_P1;HPM_P2
2021/03/01 00:02:02;;;;;;;98.93;49.30;;;;;;;;;;770158;183;623912;-69
2021/03/01 00:04:28;;;;;;;79.53;39.87;;;;;;;;;;763529;183;634905;-69
2021/03/01 00:06:54;;;;;;;65.57;33.00;;;;;;;;;;764541;181;626242;-69
2021/03/01 00:09:19;;;;;;;64.30;37.80;;;;;;;;;;764142;183;635691;-69
2021/03/01 00:11:45;;;;;;;86.00;44.57;;;;;;;;;;770770;180;627074;-69
2021/03/01 00:14:11;;;;;;;73.67;41.40;;;;;;;;;;760475;183;638396;-68
2021/03/01 00:16:37;;;;;;;69.63;40.60;;;;;;;;;;762429;183;626694;-69
2021/03/01 00:19:03;;;;;;;79.43;42.63;;;;;;;;;;762636;183;627855;-69
2021/03/01 00:21:29;;;;;;;68.63;38.00;;;;;;;;;;762080;183;620276;-69
2021/03/01 00:23:55;;;;;;;80.80;42.27;;;;;;;;;;765315;183;642267;-68
2021/03/01 00:26:20;;;;;;;78.80;42.17;;;;;;;;;;769597;183;620734;-68
2021/03/01 00:28:46;;;;;;;81.23;44.37;;;;;;;;;;764603;183;621724;-68
2021/03/01 00:31:12;;;;;;;86.53;42.77;;;;;;;;;;764703;183;629993;-69
2021/03/01 00:33:38;;;;;;;82.27;44.30;;;;;;;;;;767888;183;627097;-69
2021/03/01 00:36:04;;;;;;;82.00;44.85;;;;;;;;;;761724;183;1015325;-68
2021/03/01 00:38:30;;;;;;;84.27;43.23;;;;;;;;;;764343;183;629517;-69
2021/03/01 00:40:56;;;;;;;73.80;38.50;;;;;;;;;;760836;183;628550;-68
2021/03/01 00:43:21;;;;;;;89.53;44.80;;;;;;;;;;772750;183;630832;-69
2021/03/01 00:45:47;;;;;;;89.77;42.80;;;;;;;;;;764895;183;617389;-69
2021/03/01 00:48:13;;;;;;;81.17;40.73;;;;;;;;;;766279;183;640662;-69
2021/03/01 00:50:39;;;;;;;88.00;42.97;;;;;;;;;;762633;183;640546;-69
2021/03/01 00:53:05;;;;;;;82.37;40.93;;;;;;;;;;768585;183;627526;-69
2021/03/01 00:55:31;;;;;;;93.40;42.07;;;;;;;;;;758736;183;618595;-69
2021/03/01 00:57:57;;;;;;;75.00;39.70;;;;;;;;;;763717;183;630642;-69
2021/03/01 01:00:22;;;;;;;87.77;48.07;;;;;;;;;;761130;183;630409;-68
2021/03/01 01:02:48;;;;;;;87.07;46.03;;;;;;;;;;761103;183;627273;-69
2021/03/01 01:05:14;;;;;;;80.70;42.90;;;;;;;;;;764506;183;630960;-68
2021/03/01 01:07:40;;;;;;;66.33;37.77;;;;;;;;;;773156;181;649519;-69
2021/03/01 01:10:06;;;;;;;83.47;37.93;;;;;;;;;;763650;183;621896;-69
2021/03/01 01:12:32;;;;;;;78.80;40.80;;;;;;;;;;764047;183;613748;-69
2021/03/01 01:14:58;;;;;;;83.60;41.47;;;;;;;;;;767921;183;619178;-69
2021/03/01 01:17:24;;;;;;;114.63;48.23;;;;;;;;;;760447;184;633988;-69
2021/03/01 01:19:50;;;;;;;116.13;49.77;;;;;;;;;;760535;183;619454;-68
2021/03/01 01:22:16;;;;;;;112.87;40.87;;;;;;;;;;754978;187;640347;-69
2021/03/01 01:24:42;;;;;;;105.43;41.23;;;;;;;;;;725020;194;636436;-69
2021/03/01 01:27:08;;;;;;;104.25;35.08;;;;;;;;;;725670;191;635908;-69
2021/03/01 01:29:34;;;;;;;104.47;37.72;;;;;;;;;;748910;188;616088;-68
2021/03/01 01:32:00;;;;;;;57.33;30.60;;;;;;;;;;725142;189;624682;-69
2021/03/01 01:34:26;;;;;;;55.87;26.87;;;;;;;;;;736361;191;627428;-69
2021/03/01 01:36:52;;;;;;;45.37;19.77;;;;;;;;;;726419;194;630031;-68
2021/03/01 01:39:18;;;;;;;25.17;14.30;;;;;;;;;;732255;190;623566;-69
2021/03/01 01:41:43;;;;;;;42.57;21.17;;;;;;;;;;745185;188;634836;-70
2021/03/01 01:44:09;;;;;;;28.30;17.57;;;;;;;;;;757616;181;627799;-71
2021/03/01 01:46:35;;;;;;;39.53;22.57;;;;;;;;;;760136;184;622606;-70
2021/03/01 01:49:01;;;;;;;57.07;21.67;;;;;;;;;;760823;183;629362;-71
2021/03/01 01:51:27;;;;;;;66.17;27.53;;;;;;;;;;759325;183;624757;-72
2021/03/01 01:53:53;;;;;;;41.60;19.60;;;;;;;;;;767523;182;625925;-72
2021/03/01 01:56:18;;;;;;;48.63;22.60;;;;;;;;;;763620;183;628831;-72
2021/03/01 01:58:44;;;;;;;50.70;24.40;;;;;;;;;;762395;180;630799;-71
2021/03/01 02:01:10;;;;;;;51.77;25.53;;;;;;;;;;762609;183;618386;-70
2021/03/01 02:03:39;;;;;;;52.90;24.90;;;;;;;;;;767776;180;632885;-70
2021/03/01 02:06:05;;;;;;;45.80;22.90;;;;;;;;;;765443;183;630213;-71
2021/03/01 02:08:31;;;;;;;42.10;19.00;;;;;;;;;;764330;183;623619;-70
2021/03/01 02:10:58;;;;;;;44.50;21.20;;;;;;;;;;766919;183;638215;-69
2021/03/01 02:13:24;;;;;;;53.00;21.67;;;;;;;;;;763518;183;623358;-70
2021/03/01 02:15:50;;;;;;;19.93;11.00;;;;;;;;;;764688;183;637498;-69
2021/03/01 02:18:16;;;;;;;29.30;17.40;;;;;;;;;;764926;183;628090;-69
2021/03/01 02:20:42;;;;;;;35.40;17.10;;;;;;;;;;765359;183;626162;-70
2021/03/01 02:23:08;;;;;;;39.60;18.03;;;;;;;;;;764654;183;625412;-70
2021/03/01 02:25:34;;;;;;;31.80;17.77;;;;;;;;;;763481;183;632247;-70
2021/03/01 02:28:00;;;;;;;40.33;15.00;;;;;;;;;;766591;183;619742;-69
2021/03/01 02:30:29;;;;;;;39.40;16.40;;;;;;;;;;760830;183;627639;-68
2021/03/01 02:32:55;;;;;;;61.97;21.20;;;;;;;;;;766080;183;633191;-68
2021/03/01 02:35:21;;;;;;;54.27;20.47;;;;;;;;;;771185;183;617546;-68
2021/03/01 02:37:47;;;;;;;39.83;20.63;;;;;;;;;;764357;183;619387;-69
2021/03/01 02:40:13;;;;;;;50.90;24.40;;;;;;;;;;759555;183;623984;-68
2021/03/01 02:42:39;;;;;;;50.53;23.27;;;;;;;;;;761068;183;616121;-67
2021/03/01 02:45:05;;;;;;;49.83;26.77;;;;;;;;;;760969;181;624343;-67
2021/03/01 02:47:31;;;;;;;36.47;20.13;;;;;;;;;;764002;183;624614;-67
2021/03/01 02:49:57;;;;;;;45.40;21.33;;;;;;;;;;763307;183;636510;-67
2021/03/01 02:52:23;;;;;;;47.93;25.40;;;;;;;;;;769953;180;618668;-66
2021/03/01 02:54:49;;;;;;;48.93;19.40;;;;;;;;;;766104;184;627919;-66
2021/03/01 02:57:14;;;;;;;56.63;23.80;;;;;;;;;;765742;183;625928;-67
2021/03/01 02:59:40;;;;;;;36.13;19.80;;;;;;;;;;769278;183;629531;-66
2021/03/01 03:02:06;;;;;;;59.63;24.47;;;;;;;;;;758117;183;637759;-66
2021/03/01 03:04:33;;;;;;;41.13;18.43;;;;;;;;;;769446;181;649240;-66
2021/03/01 03:06:58;;;;;;;60.50;23.53;;;;;;;;;;771272;182;633826;-66
2021/03/01 03:09:24;;;;;;;47.13;23.83;;;;;;;;;;763694;183;625791;-66
2021/03/01 03:11:50;;;;;;;46.47;20.80;;;;;;;;;;763919;183;626627;-66
2021/03/01 03:14:16;;;;;;;34.03;17.57;;;;;;;;;;759827;183;627184;-67
2021/03/01 03:16:41;;;;;;;40.67;17.60;;;;;;;;;;767432;183;633014;-67
2021/03/01 03:19:07;;;;;;;47.27;20.90;;;;;;;;;;762761;183;632077;-67
2021/03/01 03:21:34;;;;;;;42.63;17.80;;;;;;;;;;760320;182;627992;-67
2021/03/01 03:23:59;;;;;;;33.33;17.20;;;;;;;;;;765005;184;627682;-66
2021/03/01 03:26:25;;;;;;;45.03;21.13;;;;;;;;;;763206;183;629984;-66
2021/03/01 03:28:51;;;;;;;54.27;22.30;;;;;;;;;;766425;183;627338;-66
2021/03/01 03:31:17;;;;;;;45.53;20.00;;;;;;;;;;770816;183;617404;-66
2021/03/01 03:33:42;;;;;;;43.70;19.23;;;;;;;;;;759540;183;629951;-67
2021/03/01 03:36:08;;;;;;;56.33;23.60;;;;;;;;;;762183;183;623795;-67
2021/03/01 03:38:35;;;;;;;40.35;15.95;;;;;;;;;;766104;183;630183;-65
2021/03/01 03:41:01;;;;;;;47.37;24.77;;;;;;;;;;764546;180;622717;-66
2021/03/01 03:43:27;;;;;;;46.63;18.43;;;;;;;;;;765777;183;620716;-66
2021/03/01 03:45:53;;;;;;;51.17;22.10;;;;;;;;;;760226;182;626602;-66
2021/03/01 03:48:18;;;;;;;52.63;23.33;;;;;;;;;;767922;183;626556;-66
2021/03/01 03:50:44;;;;;;;31.80;18.73;;;;;;;;;;761300;183;626277;-67
2021/03/01 03:53:10;;;;;;;22.53;12.53;;;;;;;;;;760072;183;630480;-66
2021/03/01 03:55:36;;;;;;;40.73;16.73;;;;;;;;;;768331;183;619859;-66
2021/03/01 03:58:03;;;;;;;41.00;18.93;;;;;;;;;;766856;183;639285;-65
2021/03/01 04:00:28;;;;;;;65.37;23.83;;;;;;;;;;760488;183;636672;-66
2021/03/01 04:02:55;;;;;;;36.50;17.10;;;;;;;;;;768368;183;623397;-66
2021/03/01 04:05:21;;;;;;;85.20;34.23;;;;;;;;;;763483;183;620646;-66
2021/03/01 04:07:47;;;;;;;46.33;22.93;;;;;;;;;;762532;183;630672;-66
2021/03/01 04:10:12;;;;;;;81.50;32.57;;;;;;;;;;765011;183;634914;-66
2021/03/01 04:12:38;;;;;;;55.50;23.53;;;;;;;;;;767143;183;618147;-66
2021/03/01 04:15:05;;;;;;;50.53;23.60;;;;;;;;;;768414;181;635968;-66
2021/03/01 04:17:30;;;;;;;52.10;25.87;;;;;;;;;;765979;183;696415;-68
2021/03/01 04:19:56;;;;;;;53.07;22.73;;;;;;;;;;767806;183;622228;-67
2021/03/01 04:22:22;;;;;;;61.27;26.20;;;;;;;;;;762804;183;648715;-67
2021/03/01 04:24:48;;;;;;;144.40;61.13;;;;;;;;;;761329;183;628853;-66
2021/03/01 04:27:14;;;;;;;67.20;33.20;;;;;;;;;;764090;183;626063;-66
2021/03/01 04:29:40;;;;;;;89.30;42.73;;;;;;;;;;762712;183;624972;-66
2021/03/01 04:32:05;;;;;;;54.57;26.47;;;;;;;;;;764252;183;621751;-67
2021/03/01 04:34:31;;;;;;;55.30;25.37;;;;;;;;;;762165;182;621747;-66
2021/03/01 04:36:57;;;;;;;63.23;31.13;;;;;;;;;;747893;187;625858;-66
2021/03/01 04:39:23;;;;;;;56.27;28.90;;;;;;;;;;725975;194;630746;-64
2021/03/01 04:41:49;;;;;;;42.63;16.93;;;;;;;;;;731687;187;633128;-66
2021/03/01 04:44:15;;;;;;;41.93;17.20;;;;;;;;;;746636;186;635013;-69
2021/03/01 04:46:41;;;;;;;54.57;28.80;;;;;;;;;;747324;185;621914;-66
2021/03/01 04:49:07;;;;;;;59.73;31.20;;;;;;;;;;744620;186;634203;-65
2021/03/01 04:51:33;;;;;;;48.33;22.50;;;;;;;;;;740040;189;693784;-66
2021/03/01 04:53:59;;;;;;;51.17;26.87;;;;;;;;;;725106;194;615050;-67
2021/03/01 04:56:25;;;;;;;37.40;17.00;;;;;;;;;;729449;187;671127;-67
2021/03/01 04:58:51;;;;;;;27.40;15.47;;;;;;;;;;729179;191;635157;-65
2021/03/01 05:01:17;;;;;;;50.00;26.43;;;;;;;;;;750120;187;623962;-66
2021/03/01 05:03:42;;;;;;;41.53;21.63;;;;;;;;;;745226;187;695790;-66
2021/03/01 05:06:08;;;;;;;43.50;25.83;;;;;;;;;;731943;188;633036;-66
2021/03/01 05:08:34;;;;;;;40.63;20.67;;;;;;;;;;736965;186;637374;-66
2021/03/01 05:11:00;;;;;;;49.47;24.97;;;;;;;;;;747116;187;626741;-65
2021/03/01 05:13:26;;;;;;;57.77;23.23;;;;;;;;;;732734;189;633809;-66
2021/03/01 05:15:52;;;;;;;46.30;21.80;;;;;;;;;;750214;188;621084;-65
2021/03/01 05:18:18;;;;;;;51.03;25.17;;;;;;;;;;733386;189;623166;-66
2021/03/01 05:20:43;;;;;;;48.60;20.58;;;;;;;;;;738637;187;630454;-66
2021/03/01 05:23:09;;;;;;;47.53;25.00;;;;;;;;;;743339;187;630344;-66
2021/03/01 05:25:35;;;;;;;50.37;23.23;;;;;;;;;;759920;181;680316;-66
2021/03/01 05:28:01;;;;;;;40.70;20.43;;;;;;;;;;763788;179;631504;-67
2021/03/01 05:30:27;;;;;;;54.43;23.97;;;;;;;;;;758106;183;629925;-66
2021/03/01 05:32:53;;;;;;;42.10;20.23;;;;;;;;;;768982;181;631100;-66
2021/03/01 05:35:18;;;;;;;45.90;21.20;;;;;;;;;;761908;181;623898;-67
2021/03/01 05:37:44;;;;;;;39.17;16.60;;;;;;;;;;762866;183;619688;-66
2021/03/01 05:40:10;;;;;;;53.97;22.93;;;;;;;;;;769969;183;631085;-66
2021/03/01 05:42:36;;;;;;;45.87;21.53;;;;;;;;;;768076;183;631631;-66
2021/03/01 05:45:02;;;;;;;53.37;23.70;;;;;;;;;;758398;183;627982;-66
2021/03/01 05:47:28;;;;;;;27.60;16.77;;;;;;;;;;766378;183;615852;-66
2021/03/01 05:49:54;;;;;;;36.83;17.77;;;;;;;;;;759205;183;736724;-66
2021/03/01 05:52:19;;;;;;;55.93;22.90;;;;;;;;;;760943;183;627543;-66
2021/03/01 05:54:46;;;;;;;53.72;22.30;;;;;;;;;;766154;183;634337;-65
2021/03/01 05:57:12;;;;;;;45.43;20.20;;;;;;;;;;771068;182;617339;-66
2021/03/01 05:59:37;;;;;;;45.93;22.63;;;;;;;;;;766886;183;625618;-67
2021/03/01 06:02:03;;;;;;;52.60;23.53;;;;;;;;;;764800;183;636403;-65
2021/03/01 06:04:29;;;;;;;56.03;24.07;;;;;;;;;;767133;183;632808;-67
2021/03/01 06:06:55;;;;;;;44.57;21.27;;;;;;;;;;762854;182;639534;-66
2021/03/01 06:09:21;;;;;;;45.30;21.10;;;;;;;;;;764002;183;624080;-67
2021/03/01 06:11:47;;;;;;;56.07;25.77;;;;;;;;;;766313;183;631707;-66
2021/03/01 06:14:12;;;;;;;47.70;22.80;;;;;;;;;;765275;183;628949;-67
2021/03/01 06:16:38;;;;;;;51.50;24.83;;;;;;;;;;761911;183;620487;-66
2021/03/01 06:19:04;;;;;;;50.03;19.40;;;;;;;;;;767216;183;624649;-66
2021/03/01 06:21:32;;;;;;;48.20;21.37;;;;;;;;;;763508;183;626003;-66
2021/03/01 06:23:56;;;;;;;51.13;23.80;;;;;;;;;;760951;183;624774;-67
2021/03/01 06:26:24;;;;;;;53.43;22.30;;;;;;;;;;756955;183;620970;-66
2021/03/01 06:28:49;;;;;;;54.63;24.30;;;;;;;;;;768161;183;642799;-66
2021/03/01 06:31:34;;;;;;;55.07;26.53;;;;;;;;;;763388;183;625697;-66
2021/03/01 06:34:05;;;;;;;58.57;24.77;;;;;;;;;;763554;183;622363;-66
2021/03/01 06:36:37;;;;;;;56.33;20.17;;;;;;;;;;760201;183;627169;-66
2021/03/01 06:39:03;;;;;;;58.87;24.50;;;;;;;;;;768354;183;623132;-68
2021/03/01 06:41:29;;;;;;;68.63;24.73;;;;;;;;;;768349;182;631773;-67
2021/03/01 06:43:55;;;;;;;48.53;24.67;;;;;;;;;;763002;183;624312;-67
2021/03/01 06:46:21;;;;;;;42.17;23.40;;;;;;;;;;762858;183;729762;-67
2021/03/01 06:48:47;;;;;;;56.93;24.43;;;;;;;;;;766920;183;626937;-67
2021/03/01 06:51:13;;;;;;;59.50;26.00;;;;;;;;;;762870;183;641340;-67
2021/03/01 06:53:39;;;;;;;47.77;24.93;;;;;;;;;;762229;182;627533;-67
2021/03/01 06:56:06;;;;;;;56.57;25.10;;;;;;;;;;765096;183;643315;-67
2021/03/01 06:58:32;;;;;;;49.43;24.00;;;;;;;;;;765355;181;617879;-67
2021/03/01 07:01:00;;;;;;;55.87;22.33;;;;;;;;;;764812;183;660193;-66
2021/03/01 07:03:26;;;;;;;47.40;24.33;;;;;;;;;;760551;183;628337;-67
2021/03/01 07:05:53;;;;;;;46.07;21.97;;;;;;;;;;766102;183;620038;-67
2021/03/01 07:08:25;;;;;;;55.20;22.90;;;;;;;;;;766031;183;620800;-66
2021/03/01 07:10:51;;;;;;;54.17;24.67;;;;;;;;;;760855;183;626328;-66
2021/03/01 07:13:17;;;;;;;54.03;21.57;;;;;;;;;;759758;182;627930;-66
2021/03/01 07:15:43;;;;;;;43.97;20.47;;;;;;;;;;763829;183;1099113;-67
2021/03/01 07:18:09;;;;;;;42.23;18.87;;;;;;;;;;764578;183;640041;-67
2021/03/01 07:20:35;;;;;;;46.57;21.40;;;;;;;;;;765792;183;632601;-66
2021/03/01 07:23:01;;;;;;;41.87;21.30;;;;;;;;;;764171;183;629806;-67
2021/03/01 07:25:26;;;;;;;42.13;19.80;;;;;;;;;;758959;183;624741;-67
2021/03/01 07:27:52;;;;;;;41.03;18.53;;;;;;;;;;761776;183;625903;-67
2021/03/01 07:30:18;;;;;;;40.03;18.33;;;;;;;;;;766697;183;624087;-66
2021/03/01 07:32:44;;;;;;;25.33;11.67;;;;;;;;;;764336;183;633467;-67
2021/03/01 07:35:10;;;;;;;43.33;18.97;;;;;;;;;;760153;183;627754;-67
2021/03/01 07:37:36;;;;;;;33.83;17.10;;;;;;;;;;761136;183;623679;-67
2021/03/01 07:40:02;;;;;;;39.47;16.70;;;;;;;;;;765064;180;613377;-67
2021/03/01 07:42:30;;;;;;;34.07;15.43;;;;;;;;;;763596;181;619731;-67
2021/03/01 07:44:54;;;;;;;36.77;16.80;;;;;;;;;;761506;183;618573;-67
2021/03/01 07:47:20;;;;;;;48.40;21.00;;;;;;;;;;766918;183;626787;-67
2021/03/01 07:49:47;;;;;;;34.23;15.77;;;;;;;;;;761303;182;620753;-67
2021/03/01 07:52:17;;;;;;;44.70;19.47;;;;;;;;;;764299;183;688311;-66
2021/03/01 07:54:49;;;;;;;45.17;16.57;;;;;;;;;;769206;183;620391;-67
2021/03/01 07:57:15;;;;;;;61.30;29.67;;;;;;;;;;764485;183;657433;-67
2021/03/01 07:59:41;;;;;;;66.23;32.93;;;;;;;;;;765146;183;629851;-66
2021/03/01 08:02:10;;;;;;;58.43;26.47;;;;;;;;;;760099;183;628475;-67
2021/03/01 08:04:36;;;;;;;37.13;18.50;;;;;;;;;;767345;183;617527;-66
2021/03/01 08:07:02;;;;;;;54.33;29.27;;;;;;;;;;766299;182;616064;-67
2021/03/01 08:09:33;;;;;;;74.13;35.07;;;;;;;;;;763403;183;626615;-66
2021/03/01 08:11:59;;;;;;;45.83;22.60;;;;;;;;;;763211;183;626903;-67
2021/03/01 08:14:31;;;;;;;36.63;18.40;;;;;;;;;;765542;183;622411;-66
2021/03/01 08:17:02;;;;;;;31.83;14.33;;;;;;;;;;762572;183;642401;-67
2021/03/01 08:19:34;;;;;;;30.43;14.77;;;;;;;;;;763154;183;619013;-65
2021/03/01 08:22:03;;;;;;;35.77;17.27;;;;;;;;;;762460;183;616844;-67
2021/03/01 08:24:35;;;;;;;29.85;16.00;;;;;;;;;;770033;183;632562;-65
2021/03/01 08:27:01;;;;;;;38.33;16.03;;;;;;;;;;742807;187;618735;-66
2021/03/01 08:29:27;;;;;;;32.47;16.33;;;;;;;;;;723395;194;718556;-65
2021/03/01 08:31:53;;;;;;;33.13;18.17;;;;;;;;;;736952;191;624900;-67
2021/03/01 08:34:21;;;;;;;34.80;17.57;;;;;;;;;;736096;190;629975;-66
2021/03/01 08:36:47;;;;;;;36.23;15.03;;;;;;;;;;756209;184;617573;-65
2021/03/01 08:39:13;;;;;;;27.63;14.77;;;;;;;;;;761102;183;623539;-66
2021/03/01 08:41:39;;;;;;;37.70;14.60;;;;;;;;;;762305;184;615723;-66
2021/03/01 08:44:11;;;;;;;32.83;16.10;;;;;;;;;;748364;186;626586;-66
2021/03/01 08:46:38;;;;;;;32.10;16.10;;;;;;;;;;725217;194;629725;-65
2021/03/01 08:49:03;;;;;;;29.47;13.73;;;;;;;;;;758251;183;626638;-66
2021/03/01 08:51:29;;;;;;;29.67;15.93;;;;;;;;;;764793;180;629346;-65
2021/03/01 08:53:55;;;;;;;52.43;17.00;;;;;;;;;;763680;183;635957;-66
2021/03/01 08:56:22;;;;;;;34.13;14.90;;;;;;;;;;763887;183;617337;-67
2021/03/01 08:58:48;;;;;;;38.17;18.47;;;;;;;;;;763362;183;627814;-64
2021/03/01 09:01:14;;;;;;;35.33;15.73;;;;;;;;;;773715;181;613921;-66
2021/03/01 09:03:39;;;;;;;31.77;15.00;;;;;;;;;;766124;182;623577;-66
2021/03/01 09:06:08;;;;;;;24.42;13.60;;;;;;;;;;768528;183;636596;-66
2021/03/01 09:08:35;;;;;;;37.33;16.57;;;;;;;;;;767754;183;623900;-66
2021/03/01 09:11:01;;;;;;;34.77;15.87;;;;;;;;;;765532;183;633766;-66
2021/03/01 09:13:27;;;;;;;32.90;15.13;;;;;;;;;;761623;183;618624;-63
2021/03/01 09:15:52;;;;;;;33.37;16.37;;;;;;;;;;767081;183;627811;-64
2021/03/01 09:18:18;;;;;;;36.43;16.57;;;;;;;;;;763818;180;628813;-64
2021/03/01 09:20:44;;;;;;;27.40;13.33;;;;;;;;;;766095;183;618995;-66
2021/03/01 09:23:10;;;;;;;29.70;16.13;;;;;;;;;;765271;183;632871;-67
2021/03/01 09:25:36;;;;;;;23.57;13.07;;;;;;;;;;767259;183;618351;-65
2021/03/01 09:28:02;;;;;;;29.77;14.67;;;;;;;;;;762377;182;641445;-66
2021/03/01 09:30:28;;;;;;;33.93;14.60;;;;;;;;;;760251;183;626215;-66
2021/03/01 09:32:53;;;;;;;17.20;8.57;;;;;;;;;;763963;183;625657;-66
2021/03/01 09:35:20;;;;;;;27.23;11.40;;;;;;;;;;762821;183;634651;-65
2021/03/01 09:37:46;;;;;;;33.37;16.87;;;;;;;;;;762010;183;628969;-66
2021/03/01 09:40:12;;;;;;;42.97;19.53;;;;;;;;;;768374;183;621175;-65
2021/03/01 09:42:38;;;;;;;45.90;20.80;;;;;;;;;;762895;183;624974;-66
2021/03/01 09:45:04;;;;;;;38.90;21.07;;;;;;;;;;765732;183;633491;-66
2021/03/01 09:47:30;;;;;;;34.97;17.30;;;;;;;;;;765789;183;622603;-67
2021/03/01 09:49:56;;;;;;;42.97;22.50;;;;;;;;;;764903;181;627451;-66
2021/03/01 09:52:22;;;;;;;41.23;19.73;;;;;;;;;;764491;183;620322;-65
2021/03/01 09:54:47;;;;;;;30.90;15.00;;;;;;;;;;759695;182;634260;-66
2021/03/01 09:57:13;;;;;;;26.70;16.37;;;;;;;;;;767629;183;620074;-66
2021/03/01 09:59:39;;;;;;;35.53;19.10;;;;;;;;;;764041;183;618634;-65
2021/03/01 10:02:20;;;;;;;30.50;17.27;;;;;;;;;;764804;183;611543;-65
2021/03/01 10:04:46;;;;;;;31.27;16.23;;;;;;;;;;762847;182;638731;-66
2021/03/01 10:07:15;;;;;;;34.60;18.67;;;;;;;;;;767395;183;633725;-65
2021/03/01 10:09:41;;;;;;;39.77;19.93;;;;;;;;;;765917;183;635946;-65
2021/03/01 10:12:07;;;;;;;39.97;19.30;;;;;;;;;;765078;181;625204;-65
2021/03/01 10:14:33;;;;;;;36.30;17.90;;;;;;;;;;765915;183;617340;-66
2021/03/01 10:16:59;;;;;;;37.87;18.20;;;;;;;;;;756540;184;614382;-65
2021/03/01 10:19:25;;;;;;;40.03;21.70;;;;;;;;;;747893;187;629364;-66
2021/03/01 10:21:50;;;;;;;34.40;19.80;;;;;;;;;;736895;189;634295;-66
2021/03/01 10:24:18;;;;;;;40.00;22.07;;;;;;;;;;735877;190;626372;-66
2021/03/01 10:26:49;;;;;;;42.40;21.70;;;;;;;;;;756026;185;636606;-66
2021/03/01 10:29:15;;;;;;;36.57;17.83;;;;;;;;;;766065;183;678774;-65
2021/03/01 10:31:41;;;;;;;43.90;21.80;;;;;;;;;;758674;183;628597;-66
2021/03/01 10:34:06;;;;;;;45.30;20.30;;;;;;;;;;766826;182;617207;-66
2021/03/01 10:36:33;;;;;;;48.70;22.60;;;;;;;;;;765344;181;630944;-64
2021/03/01 10:38:59;;;;;;;41.33;21.53;;;;;;;;;;761520;183;618837;-65
2021/03/01 10:41:25;;;;;;;39.47;21.00;;;;;;;;;;768557;180;685507;-65
2021/03/01 10:43:51;;;;;;;50.03;28.20;;;;;;;;;;763774;183;626374;-65
2021/03/01 10:46:23;;;;;;;43.60;24.37;;;;;;;;;;762114;183;630154;-66
2021/03/01 10:48:49;;;;;;;54.43;23.93;;;;;;;;;;766463;183;625434;-66
2021/03/01 10:51:15;;;;;;;50.80;25.60;;;;;;;;;;763845;181;917356;-65
2021/03/01 10:53:40;;;;;;;33.87;17.20;;;;;;;;;;764210;182;634516;-64
2021/03/01 10:56:06;;;;;;;36.57;21.47;;;;;;;;;;765691;183;627271;-65
2021/03/01 10:58:32;;;;;;;50.77;23.20;;;;;;;;;;771138;183;629139;-66
2021/03/01 11:00:58;;;;;;;44.47;24.20;;;;;;;;;;763151;183;631188;-65
2021/03/01 11:03:24;;;;;;;56.73;25.00;;;;;;;;;;763636;180;629850;-64
2021/03/01 11:05:50;;;;;;;41.63;23.97;;;;;;;;;;767075;183;615946;-65
2021/03/01 11:08:16;;;;;;;50.23;22.43;;;;;;;;;;764732;183;637539;-65
2021/03/01 11:10:41;;;;;;;49.67;24.23;;;;;;;;;;764386;183;628627;-65
2021/03/01 11:13:07;;;;;;;58.07;27.47;;;;;;;;;;765976;183;625001;-65
2021/03/01 11:15:33;;;;;;;44.13;20.87;;;;;;;;;;762958;183;702041;-65
2021/03/01 11:17:59;;;;;;;49.90;24.50;;;;;;;;;;761952;183;628728;-65
2021/03/01 11:20:25;;;;;;;44.20;22.30;;;;;;;;;;758653;183;679535;-65
2021/03/01 11:22:51;;;;;;;46.40;21.70;;;;;;;;;;768087;183;635740;-64
2021/03/01 11:25:16;;;;;;;38.77;21.30;;;;;;;;;;766761;182;636259;-63
2021/03/01 11:27:42;;;;;;;47.43;25.70;;;;;;;;;;766081;183;858812;-64
2021/03/01 11:30:08;;;;;;;53.50;23.10;;;;;;;;;;769228;183;627828;-65
2021/03/01 11:32:34;;;;;;;55.73;27.23;;;;;;;;;;767765;183;629416;-65
2021/03/01 11:35:00;;;;;;;36.83;21.00;;;;;;;;;;761223;183;629213;-64
2021/03/01 11:37:26;;;;;;;39.17;22.23;;;;;;;;;;763692;182;621895;-65
2021/03/01 11:39:52;;;;;;;48.80;21.20;;;;;;;;;;758539;183;628643;-65
2021/03/01 11:42:18;;;;;;;46.13;23.10;;;;;;;;;;764085;183;623360;-65
2021/03/01 11:44:44;;;;;;;35.37;15.83;;;;;;;;;;759900;184;639809;-65
2021/03/01 11:47:10;;;;;;;50.40;27.33;;;;;;;;;;765996;183;626570;-64
2021/03/01 11:49:36;;;;;;;41.00;21.90;;;;;;;;;;760179;183;635028;-65
2021/03/01 11:52:01;;;;;;;40.50;18.67;;;;;;;;;;762791;183;728247;-65
2021/03/01 11:54:27;;;;;;;43.10;20.47;;;;;;;;;;771439;183;618822;-65
2021/03/01 11:56:53;;;;;;;46.50;22.17;;;;;;;;;;765535;183;622429;-66
2021/03/01 11:59:19;;;;;;;57.80;26.07;;;;;;;;;;763532;183;623616;-65
2021/03/01 12:01:45;;;;;;;103.30;40.30;;;;;;;;;;770340;179;622322;-65
2021/03/01 12:04:11;;;;;;;68.20;31.10;;;;;;;;;;765080;183;624045;-65
2021/03/01 12:06:36;;;;;;;74.33;36.83;;;;;;;;;;757120;183;616579;-65
2021/03/01 12:09:02;;;;;;;49.27;24.87;;;;;;;;;;763195;183;632106;-64
2021/03/01 12:11:28;;;;;;;46.67;21.83;;;;;;;;;;761677;183;631936;-65
2021/03/01 12:13:54;;;;;;;43.50;22.40;;;;;;;;;;763842;183;628550;-64
2021/03/01 12:16:20;;;;;;;41.83;21.70;;;;;;;;;;762528;183;623878;-65
2021/03/01 12:18:46;;;;;;;38.37;18.70;;;;;;;;;;769419;184;618895;-66
2021/03/01 12:21:12;;;;;;;39.27;18.67;;;;;;;;;;762814;183;627423;-65
2021/03/01 12:23:37;;;;;;;35.03;16.50;;;;;;;;;;761397;183;627580;-63
2021/03/01 12:26:03;;;;;;;39.30;20.23;;;;;;;;;;766610;183;638790;-64
2021/03/01 12:28:29;;;;;;;40.83;20.57;;;;;;;;;;764936;183;639228;-65
2021/03/01 12:30:55;;;;;;;44.97;23.07;;;;;;;;;;766499;183;636279;-65
2021/03/01 12:33:21;;;;;;;36.17;16.87;;;;;;;;;;767116;183;630522;-64
2021/03/01 12:35:47;;;;;;;34.78;18.02;;;;;;;;;;765902;183;634186;-63
2021/03/01 12:38:13;;;;;;;38.53;20.43;;;;;;;;;;763504;183;635611;-65
2021/03/01 12:40:39;;;;;;;41.67;20.17;;;;;;;;;;765487;183;851491;-63
2021/03/01 12:43:05;;;;;;;48.33;20.70;;;;;;;;;;768539;181;637189;-65
2021/03/01 12:45:32;;;;;;;52.63;26.07;;;;;;;;;;766572;183;705665;-64
2021/03/01 12:47:57;;;;;;;58.20;29.43;;;;;;;;;;761493;183;625544;-65
2021/03/01 12:50:22;;;;;;;50.10;25.80;;;;;;;;;;760187;183;637450;-65
2021/03/01 12:52:48;;;;;;;53.83;25.43;;;;;;;;;;761498;183;642453;-65
2021/03/01 12:55:14;;;;;;;35.73;18.50;;;;;;;;;;758486;183;631339;-66
2021/03/01 12:57:40;;;;;;;48.77;23.80;;;;;;;;;;766636;183;642353;-65
2021/03/01 13:00:09;;;;;;;46.00;20.10;;;;;;;;;;766835;183;640673;-65
2021/03/01 13:02:32;;;;;;;58.43;27.43;;;;;;;;;;764882;183;629787;-67
2021/03/01 13:04:58;;;;;;;35.70;16.57;;;;;;;;;;767376;183;630971;-65
2021/03/01 13:07:24;;;;;;;71.90;28.97;;;;;;;;;;763745;182;626925;-65
2021/03/01 13:09:50;;;;;;;37.63;20.37;;;;;;;;;;763998;183;628329;-65
2021/03/01 13:12:16;;;;;;;38.90;20.40;;;;;;;;;;764578;183;619666;-65
2021/03/01 13:14:41;;;;;;;38.73;19.40;;;;;;;;;;767892;183;629192;-65
2021/03/01 13:17:08;;;;;;;46.17;22.53;;;;;;;;;;763987;183;628167;-65
2021/03/01 13:19:33;;;;;;;48.13;21.87;;;;;;;;;;761583;183;772267;-64
2021/03/01 13:21:59;;;;;;;31.37;18.10;;;;;;;;;;766150;183;629068;-64
2021/03/01 13:24:25;;;;;;;39.10;16.87;;;;;;;;;;764395;183;612371;-64
2021/03/01 13:26:51;;;;;;;37.17;19.03;;;;;;;;;;764055;183;619116;-65
2021/03/01 13:29:17;;;;;;;76.70;31.67;;;;;;;;;;769748;183;632508;-65
2021/03/01 13:31:43;;;;;;;53.63;25.87;;;;;;;;;;758163;183;654368;-64
2021/03/01 13:34:08;;;;;;;66.83;29.50;;;;;;;;;;758726;183;672318;-64
2021/03/01 13:36:34;;;;;;;65.20;30.53;;;;;;;;;;760383;183;626642;-63
2021/03/01 13:39:00;;;;;;;51.87;26.57;;;;;;;;;;747112;187;637713;-65
2021/03/01 13:41:26;;;;;;;28.97;17.50;;;;;;;;;;733120;188;636431;-65
2021/03/01 13:43:52;;;;;;;27.60;14.43;;;;;;;;;;733988;190;623572;-64
2021/03/01 13:46:18;;;;;;;33.90;19.63;;;;;;;;;;770279;183;623022;-64
2021/03/01 13:48:44;;;;;;;40.80;18.17;;;;;;;;;;763032;182;617814;-65
2021/03/01 13:51:09;;;;;;;36.33;17.30;;;;;;;;;;764579;183;632588;-64
2021/03/01 13:53:35;;;;;;;30.10;18.03;;;;;;;;;;771346;183;613567;-64
2021/03/01 13:56:01;;;;;;;43.97;21.73;;;;;;;;;;761896;183;614808;-63
2021/03/01 13:58:27;;;;;;;47.27;18.67;;;;;;;;;;763966;183;625588;-65